Time;durP1;ratioP1;P1;durP2;ratioP2;P2;SDS_P1;SDS_P2;PMS_P1;PMS_P2;Temp;Humidity;BMP_temperature;BMP_pressure;BME280_temperature;BME280_humidity;BME280_pressure;Samples;Min_cycle;Max_cycle;Signal;HPM_P1;HPM_P2
2022/11/27 00:00:55;;;;;;;14.23;5.05;;;;;;;5.60;100.00;102444.81;5048907;28;20436;-84
2022/11/27 00:03:20;;;;;;;16.38;5.43;;;;;;;5.59;100.00;102435.25;5048434;28;20378;-84
2022/11/27 00:05:56;;;;;;;11.57;4.50;;;;;;;5.56;100.00;102445.78;5048152;28;20045;-83
2022/11/27 00:08:24;;;;;;;11.38;4.60;;;;;;;5.52;100.00;102449.38;5048360;28;20516;-83
2022/11/27 00:10:50;;;;;;;12.48;4.70;;;;;;;5.50;100.00;102445.94;5048612;28;20037;-83
2022/11/27 00:13:16;;;;;;;15.18;5.03;;;;;;;5.47;100.00;102443.41;5048426;28;20103;-84
2022/11/27 00:15:41;;;;;;;13.75;4.72;;;;;;;5.48;100.00;102441.66;5038383;28;20108;-83
2022/11/27 00:18:07;;;;;;;15.13;5.10;;;;;;;5.40;100.00;102441.00;5032778;28;20029;-83
2022/11/27 00:20:32;;;;;;;15.90;5.47;;;;;;;5.41;100.00;102435.75;5047911;28;20100;-84
2022/11/27 00:22:57;;;;;;;15.10;5.38;;;;;;;5.38;100.00;102433.22;5048609;28;20048;-84
2022/11/27 00:25:23;;;;;;;13.68;4.70;;;;;;;5.36;100.00;102421.97;5046641;28;20045;-83
2022/11/27 00:27:48;;;;;;;15.68;5.20;;;;;;;5.31;100.00;102411.66;5048172;28;20060;-85
2022/11/27 00:30:14;;;;;;;16.65;4.80;;;;;;;5.29;100.00;102408.25;5041827;28;20397;-83
2022/11/27 00:32:40;;;;;;;16.55;5.25;;;;;;;5.27;100.00;102412.66;5048694;28;20028;-83
2022/11/27 00:35:05;;;;;;;14.07;5.20;;;;;;;5.25;100.00;102408.38;5048022;28;20017;-84
2022/11/27 00:37:31;;;;;;;14.90;4.95;;;;;;;5.21;100.00;102407.59;5048061;28;20029;-83
2022/11/27 00:39:56;;;;;;;16.27;5.53;;;;;;;5.21;100.00;102411.97;5047927;28;20477;-83
2022/11/27 00:42:22;;;;;;;16.92;5.72;;;;;;;5.18;100.00;102412.00;5048092;28;20810;-84
2022/11/27 00:44:47;;;;;;;14.63;5.50;;;;;;;5.16;100.00;102411.19;5049845;28;20029;-83
2022/11/27 00:47:12;;;;;;;14.73;6.20;;;;;;;5.13;100.00;102398.22;5046484;28;20481;-83
2022/11/27 00:49:38;;;;;;;16.73;5.88;;;;;;;5.10;100.00;102403.53;5047981;28;20041;-83
2022/11/27 00:52:03;;;;;;;17.95;5.75;;;;;;;5.09;100.00;102401.81;5051580;28;20021;-83
2022/11/27 00:54:28;;;;;;;17.83;6.57;;;;;;;5.07;100.00;102395.78;5053598;28;20028;-84
2022/11/27 00:56:54;;;;;;;18.90;6.65;;;;;;;5.07;100.00;102387.97;5052959;28;20036;-83
2022/11/27 00:59:19;;;;;;;18.25;6.60;;;;;;;5.04;100.00;102387.16;5051872;28;20039;-83
2022/11/27 01:01:45;;;;;;;17.90;6.15;;;;;;;5.06;100.00;102386.25;5052768;28;20020;-84
2022/11/27 01:04:14;;;;;;;15.25;6.10;;;;;;;5.03;100.00;102382.84;5051885;28;20071;-83
2022/11/27 01:06:40;;;;;;;17.05;6.30;;;;;;;5.02;100.00;102381.13;5050114;28;20051;-84
2022/11/27 01:09:06;;;;;;;18.48;6.88;;;;;;;5.01;100.00;102376.81;5051348;28;20036;-83
2022/11/27 01:11:34;;;;;;;18.05;6.68;;;;;;;5.02;100.00;102375.91;5052221;28;20029;-83
2022/11/27 01:14:06;;;;;;;21.15;7.50;;;;;;;4.99;100.00;102367.31;5053548;28;20035;-84
2022/11/27 01:16:33;;;;;;;22.08;7.35;;;;;;;4.99;100.00;102365.56;5046738;28;20017;-84
2022/11/27 01:18:59;;;;;;;20.70;7.47;;;;;;;4.97;100.00;102362.13;5033167;28;20576;-84
2022/11/27 01:21:29;;;;;;;19.48;6.90;;;;;;;4.98;100.00;102357.78;5034517;28;20029;-83
2022/11/27 01:23:55;;;;;;;18.45;7.00;;;;;;;4.97;100.00;102362.13;5046616;28;20072;-85
2022/11/27 01:26:21;;;;;;;23.75;7.70;;;;;;;4.97;100.00;102369.09;5051915;28;20033;-83
2022/11/27 01:28:46;;;;;;;21.25;7.10;;;;;;;4.97;100.00;102366.50;5059682;28;20017;-83
2022/11/27 01:31:15;;;;;;;21.73;6.80;;;;;;;4.94;100.00;102362.22;5054430;28;20074;-84
2022/11/27 01:33:41;;;;;;;20.00;7.00;;;;;;;4.95;100.00;102358.72;5050895;28;20024;-81
2022/11/27 01:36:09;;;;;;;17.17;6.78;;;;;;;4.95;100.00;102353.50;5050450;28;20455;-84
2022/11/27 01:38:34;;;;;;;16.77;6.88;;;;;;;4.94;100.00;102343.97;5050290;28;20048;-83
2022/11/27 01:41:06;;;;;;;15.88;6.85;;;;;;;4.93;100.00;102339.63;5036277;28;20028;-84
2022/11/27 01:43:41;;;;;;;20.70;7.32;;;;;;;4.95;100.00;102331.78;5048214;28;20104;-84
2022/11/27 01:46:22;;;;;;;19.88;7.60;;;;;;;4.97;100.00;102330.84;5032213;28;20033;-84
2022/11/27 01:48:52;;;;;;;19.48;6.55;;;;;;;4.93;100.00;102329.22;5050631;28;20029;-83
2022/11/27 01:51:21;;;;;;;16.55;6.65;;;;;;;4.93;100.00;102329.22;5058995;28;20036;-83
2022/11/27 01:53:47;;;;;;;16.05;6.60;;;;;;;4.95;100.00;102314.38;5071684;28;20032;-83
2022/11/27 01:56:13;;;;;;;22.13;7.15;;;;;;;4.92;100.00;102316.22;5067354;28;20025;-84
2022/11/27 01:58:39;;;;;;;20.50;7.10;;;;;;;4.93;100.00;102304.88;5068825;28;20342;-83
2022/11/27 02:01:04;;;;;;;17.20;6.97;;;;;;;4.89;100.00;102296.28;5071083;28;20033;-84
2022/11/27 02:03:30;;;;;;;22.35;7.40;;;;;;;4.88;100.00;102299.78;5071037;28;20021;-83
2022/11/27 02:05:56;;;;;;;23.23;7.43;;;;;;;4.84;100.00;102287.72;5071203;28;20076;-80
2022/11/27 02:08:21;;;;;;;19.90;7.63;;;;;;;4.81;100.00;102282.59;5070346;28;20201;-83
2022/11/27 02:10:52;;;;;;;17.55;6.88;;;;;;;4.80;100.00;102277.41;5073065;28;20048;-84
2022/11/27 02:13:32;;;;;;;22.80;7.88;;;;;;;4.78;100.00;102281.81;5057508;28;20014;-86
2022/11/27 02:16:30;;;;;;;23.25;8.02;;;;;;;4.74;100.00;102265.38;5066257;28;20020;-84
2022/11/27 02:19:22;;;;;;;21.05;7.13;;;;;;;4.71;100.00;102275.91;5065522;28;20025;-80
2022/11/27 02:22:00;;;;;;;22.97;7.63;;;;;;;4.65;100.00;102263.88;5072861;28;20043;-84
2022/11/27 02:24:47;;;;;;;21.30;8.07;;;;;;;4.67;100.00;102263.84;5064165;28;20293;-84
2022/11/27 02:27:42;;;;;;;17.80;7.88;;;;;;;4.65;100.00;102260.44;5050326;28;20032;-84
2022/11/27 02:30:09;;;;;;;22.98;8.40;;;;;;;4.60;100.00;102246.66;5046388;28;20067;-83
2022/11/27 02:32:39;;;;;;;18.95;7.43;;;;;;;4.58;100.00;102253.66;5051299;28;20443;-84
2022/11/27 02:35:37;;;;;;;17.08;8.43;;;;;;;4.59;100.00;102252.78;5050102;28;20067;-84
2022/11/27 02:38:14;;;;;;;26.70;8.68;;;;;;;4.57;100.00;102255.41;5050350;28;20025;-84
2022/11/27 02:40:52;;;;;;;19.92;7.93;;;;;;;4.54;100.00;102246.84;5051625;28;20035;-83
2022/11/27 02:43:29;;;;;;;17.98;8.10;;;;;;;4.53;100.00;102245.97;5052524;28;20033;-83
2022/11/27 02:45:58;;;;;;;21.27;8.25;;;;;;;4.51;100.00;102231.28;5047223;28;20119;-83
2022/11/27 02:48:29;;;;;;;24.77;8.82;;;;;;;4.48;100.00;102232.22;5048481;28;20025;-84
2022/11/27 02:50:55;;;;;;;19.60;8.88;;;;;;;4.47;100.00;102234.88;5059141;28;20032;-84
2022/11/27 02:53:25;;;;;;;21.30;8.48;;;;;;;4.48;100.00;102247.00;5066103;28;20027;-84
2022/11/27 02:55:52;;;;;;;22.30;8.85;;;;;;;4.46;100.00;102259.22;5057682;28;20029;-84
2022/11/27 02:58:22;;;;;;;19.25;7.88;;;;;;;4.43;100.00;102249.72;5053184;28;20025;-83
2022/11/27 03:00:49;;;;;;;19.45;8.35;;;;;;;4.44;100.00;102261.00;5050678;28;20087;-83
2022/11/27 03:03:21;;;;;;;20.17;8.27;;;;;;;4.44;100.00;102259.25;5042668;28;20049;-84
2022/11/27 03:05:50;;;;;;;19.05;8.20;;;;;;;4.45;100.00;102252.28;5049751;28;20433;-81
2022/11/27 03:08:28;;;;;;;18.27;8.15;;;;;;;4.49;100.00;102256.53;5048651;28;20029;-81
2022/11/27 03:11:04;;;;;;;17.80;7.88;;;;;;;4.50;100.00;102260.84;5050207;28;20021;-83
2022/11/27 03:13:36;;;;;;;20.58;8.43;;;;;;;4.49;100.00;102253.91;5050868;28;20028;-83
2022/11/27 03:16:34;;;;;;;18.02;7.93;;;;;;;4.52;100.00;102244.28;5050513;28;20055;-83
2022/11/27 03:19:13;;;;;;;20.90;7.32;;;;;;;4.58;100.00;102245.84;5046569;28;20041;-84
2022/11/27 03:22:10;;;;;;;17.40;7.40;;;;;;;4.60;100.00;102241.44;5045324;28;20064;-81
2022/11/27 03:24:35;;;;;;;16.08;6.95;;;;;;;4.56;100.00;102230.25;5044343;28;20103;-81
2022/11/27 03:27:02;;;;;;;14.70;6.90;;;;;;;4.58;100.00;102236.28;5048778;28;20021;-80
2022/11/27 03:29:40;;;;;;;15.23;6.65;;;;;;;4.59;100.00;102237.13;5049512;28;20100;-83
2022/11/27 03:32:06;;;;;;;12.70;6.55;;;;;;;4.60;100.00;102237.09;5048576;28;20040;-84
2022/11/27 03:34:31;;;;;;;17.73;6.97;;;;;;;4.61;100.00;102227.53;5049721;28;20025;-83
2022/11/27 03:36:57;;;;;;;14.95;6.70;;;;;;;4.64;100.00;102230.91;5043662;28;20366;-81
2022/11/27 03:39:23;;;;;;;15.23;6.63;;;;;;;4.65;100.00;102223.94;5049260;28;20040;-84
2022/11/27 03:42:26;;;;;;;12.85;6.53;;;;;;;4.69;100.00;102215.97;5050164;28;20029;-81
2022/11/27 03:45:00;;;;;;;15.77;6.38;;;;;;;4.71;100.00;102210.72;5048812;28;20032;-81
2022/11/27 03:47:57;;;;;;;12.27;5.72;;;;;;;4.73;100.00;102201.09;5048025;28;20036;-83
2022/11/27 03:50:44;;;;;;;12.13;5.47;;;;;;;4.71;100.00;102200.28;5042594;28;20125;-83
2022/11/27 03:53:44;;;;;;;14.18;5.47;;;;;;;4.71;100.00;102213.34;5047595;28;20548;-84
2022/11/27 03:56:21;;;;;;;13.63;5.10;;;;;;;4.72;99.98;102208.06;5030365;28;20039;-83
2022/11/27 03:58:57;;;;;;;10.90;5.15;;;;;;;4.74;99.97;102208.03;5047549;28;20031;-84
2022/11/27 04:01:26;;;;;;;13.68;5.80;;;;;;;4.76;99.37;102211.44;5048902;28;20115;-84
2022/11/27 04:03:51;;;;;;;11.60;5.57;;;;;;;4.79;99.29;102200.06;5049285;28;20028;-84
2022/11/27 04:06:16;;;;;;;13.98;5.38;;;;;;;4.79;99.20;102215.72;5042909;28;20347;-83
2022/11/27 04:08:44;;;;;;;13.07;5.70;;;;;;;4.78;99.07;102217.47;5044222;28;20037;-83
2022/11/27 04:11:10;;;;;;;10.68;4.97;;;;;;;4.80;99.19;102218.28;5043146;28;21110;-84
2022/11/27 04:13:36;;;;;;;12.57;5.35;;;;;;;4.79;98.99;102221.78;5032746;28;20021;-84
2022/11/27 04:16:02;;;;;;;9.98;5.22;;;;;;;4.80;99.02;102225.25;5048044;28;20029;-84
2022/11/27 04:18:28;;;;;;;11.48;4.72;;;;;;;4.79;98.99;102232.22;5048910;28;20029;-81
2022/11/27 04:20:53;;;;;;;9.85;5.05;;;;;;;4.82;98.91;102232.16;5047302;28;20150;-84
2022/11/27 04:23:22;;;;;;;9.73;4.60;;;;;;;4.81;98.90;102230.47;5048053;28;20031;-84
2022/11/27 04:25:48;;;;;;;12.75;5.43;;;;;;;4.81;98.62;102233.06;5043535;28;20037;-83
2022/11/27 04:28:16;;;;;;;13.73;5.13;;;;;;;4.80;98.50;102223.50;5049680;28;20033;-84
2022/11/27 04:30:41;;;;;;;11.32;5.03;;;;;;;4.81;99.04;102220.03;5048801;28;20112;-81
2022/11/27 04:33:08;;;;;;;12.02;4.70;;;;;;;4.80;98.65;102223.50;5048844;28;20100;-84
2022/11/27 04:35:33;;;;;;;11.25;5.05;;;;;;;4.79;99.26;102211.38;5049781;28;20485;-84
2022/11/27 04:37:58;;;;;;;14.70;5.57;;;;;;;4.79;98.54;102210.50;5048964;28;20115;-84
2022/11/27 04:40:24;;;;;;;11.15;5.40;;;;;;;4.76;99.19;102213.19;5048455;28;20052;-81
2022/11/27 04:42:49;;;;;;;11.32;5.07;;;;;;;4.77;98.88;102218.38;5043724;28;20024;-81
2022/11/27 04:45:15;;;;;;;13.30;5.40;;;;;;;4.79;98.80;102218.31;5049572;28;20489;-84
2022/11/27 04:47:40;;;;;;;12.27;5.53;;;;;;;4.78;99.36;102214.00;5049045;28;20040;-81
2022/11/27 04:50:06;;;;;;;14.55;5.20;;;;;;;4.78;98.59;102204.44;5054048;28;20023;-84
2022/11/27 04:52:31;;;;;;;10.60;4.80;;;;;;;4.78;99.03;102198.38;5068520;28;20040;-84
2022/11/27 04:54:57;;;;;;;11.07;5.22;;;;;;;4.78;99.07;102194.00;5069075;28;20016;-84
2022/11/27 04:57:22;;;;;;;11.02;5.22;;;;;;;4.78;98.79;102187.94;5054612;28;20045;-84
2022/11/27 04:59:51;;;;;;;10.52;4.57;;;;;;;4.80;99.06;102187.00;5035447;28;20120;-84
2022/11/27 05:02:16;;;;;;;11.18;4.75;;;;;;;4.82;98.83;102189.59;5027079;28;20452;-84
2022/11/27 05:04:41;;;;;;;13.25;5.80;;;;;;;4.83;98.47;102184.34;5028529;28;20017;-84
2022/11/27 05:07:07;;;;;;;10.63;5.43;;;;;;;4.82;98.66;102180.03;5038374;28;20037;-84
2022/11/27 05:09:33;;;;;;;13.63;5.57;;;;;;;4.80;98.19;102168.75;5047755;28;20044;-84
2022/11/27 05:11:58;;;;;;;11.68;5.35;;;;;;;4.82;98.50;102166.97;5048210;28;20060;-81
2022/11/27 05:14:27;;;;;;;13.57;4.97;;;;;;;4.85;98.50;102156.47;5045406;28;20037;-84
2022/11/27 05:16:55;;;;;;;11.07;5.03;;;;;;;4.87;98.42;102167.69;5036977;28;20025;-84
2022/11/27 05:19:23;;;;;;;13.70;5.03;;;;;;;4.87;98.15;102167.69;5048050;28;20025;-84
2022/11/27 05:21:52;;;;;;;11.00;5.03;;;;;;;4.90;98.36;102157.19;5047309;28;20385;-84
2022/11/27 05:24:22;;;;;;;10.93;4.75;;;;;;;4.90;97.82;102151.97;5048461;28;20041;-84
2022/11/27 05:26:51;;;;;;;14.18;5.18;;;;;;;4.91;98.08;102161.50;5047041;28;20485;-84
2022/11/27 05:29:17;;;;;;;11.02;4.95;;;;;;;4.91;98.11;102164.09;5046530;28;20032;-83
2022/11/27 05:31:44;;;;;;;13.77;5.07;;;;;;;4.92;98.32;102151.91;5047673;28;20028;-84
2022/11/27 05:34:10;;;;;;;12.85;4.97;;;;;;;4.93;97.94;102153.63;5042328;28;20024;-80
2022/11/27 05:36:36;;;;;;;13.75;5.30;;;;;;;4.93;97.59;102157.09;5048077;28;20013;-83
2022/11/27 05:39:05;;;;;;;13.45;5.80;;;;;;;4.94;97.86;102148.34;5050724;28;20151;-84
2022/11/27 05:41:32;;;;;;;11.32;4.82;;;;;;;4.96;97.95;102148.31;5051351;28;20052;-84
2022/11/27 05:43:58;;;;;;;16.23;5.30;;;;;;;4.96;98.38;102140.50;5050456;28;20463;-84
2022/11/27 05:46:24;;;;;;;10.38;4.50;;;;;;;4.98;97.97;102138.69;5051434;28;20104;-84
2022/11/27 05:48:50;;;;;;;10.43;4.97;;;;;;;4.97;97.54;102134.38;5051036;28;20075;-84
2022/11/27 05:51:16;;;;;;;10.30;4.50;;;;;;;4.97;97.83;102130.00;5049277;28;20024;-81
2022/11/27 05:53:42;;;;;;;9.57;4.70;;;;;;;4.94;97.99;102122.28;5052622;28;20029;-84
2022/11/27 05:56:11;;;;;;;9.60;4.75;;;;;;;4.95;98.06;102123.13;5050090;28;20036;-84
2022/11/27 05:58:37;;;;;;;10.10;4.65;;;;;;;4.96;97.99;102117.00;5049125;28;20020;-84
2022/11/27 06:01:04;;;;;;;11.07;5.05;;;;;;;4.96;97.85;102115.25;5048866;28;20033;-84
2022/11/27 06:03:30;;;;;;;8.95;4.90;;;;;;;4.96;97.71;102123.09;5052403;28;20029;-84
2022/11/27 06:05:56;;;;;;;11.27;4.90;;;;;;;4.96;97.89;102122.22;5045752;28;20389;-84
2022/11/27 06:08:22;;;;;;;13.88;5.25;;;;;;;4.97;98.49;102118.72;5051912;28;20082;-85
2022/11/27 06:10:48;;;;;;;13.38;5.35;;;;;;;4.97;98.01;102116.13;5052375;28;20479;-81
2022/11/27 06:13:14;;;;;;;10.10;4.50;;;;;;;4.99;97.89;102111.72;5050358;28;20028;-81
2022/11/27 06:15:40;;;;;;;15.57;4.90;;;;;;;4.97;98.34;102109.16;5051333;28;20024;-84
2022/11/27 06:18:06;;;;;;;10.35;4.57;;;;;;;4.99;98.19;102106.50;5052713;28;20021;-81
2022/11/27 06:20:36;;;;;;;10.45;4.93;;;;;;;5.01;98.47;102108.16;5051254;28;20036;-81
2022/11/27 06:23:01;;;;;;;9.75;5.13;;;;;;;4.99;98.13;102112.56;5047601;28;20029;-81
2022/11/27 06:25:26;;;;;;;12.45;4.78;;;;;;;5.01;98.85;102100.31;5049730;28;20052;-84
2022/11/27 06:27:53;;;;;;;10.75;4.68;;;;;;;5.02;98.54;102104.63;5049991;28;20116;-83
2022/11/27 06:30:21;;;;;;;9.13;4.55;;;;;;;5.01;98.63;102096.88;5052328;28;20029;-80
2022/11/27 06:32:46;;;;;;;9.88;4.97;;;;;;;5.00;98.55;102098.63;5052786;28;20122;-84
2022/11/27 06:35:12;;;;;;;10.43;4.80;;;;;;;5.00;99.02;102093.41;5051955;28;20045;-84
2022/11/27 06:37:37;;;;;;;10.48;4.72;;;;;;;5.01;99.42;102092.50;5051896;28;20032;-84
2022/11/27 06:40:06;;;;;;;8.30;4.22;;;;;;;5.02;99.62;102109.00;5045847;28;20022;-83
2022/11/27 06:42:31;;;;;;;8.43;4.20;;;;;;;5.02;100.00;102098.56;5051674;28;20032;-83
2022/11/27 06:44:57;;;;;;;8.65;4.60;;;;;;;5.01;100.00;102108.16;5051165;28;20021;-81
2022/11/27 06:47:23;;;;;;;13.77;5.80;;;;;;;5.01;100.00;102099.47;5050721;28;20054;-84
2022/11/27 06:49:48;;;;;;;9.82;4.97;;;;;;;5.02;100.00;102101.19;5054029;28;20377;-84
2022/11/27 06:52:14;;;;;;;10.05;4.97;;;;;;;5.00;100.00;102096.00;5065891;28;20037;-84
2022/11/27 06:54:40;;;;;;;9.88;4.75;;;;;;;5.00;100.00;102092.53;5050818;28;20104;-85
2022/11/27 06:57:05;;;;;;;11.20;5.38;;;;;;;4.99;100.00;102096.91;5040495;28;20511;-84
2022/11/27 06:59:36;;;;;;;10.68;4.68;;;;;;;4.97;100.00;102085.69;5034681;28;20532;-84
2022/11/27 07:02:04;;;;;;;9.70;4.72;;;;;;;4.99;100.00;102080.41;5049053;28;20080;-84
2022/11/27 07:04:30;;;;;;;10.23;5.07;;;;;;;5.03;100.00;102079.41;5043282;28;20068;-84
2022/11/27 07:06:56;;;;;;;10.73;4.55;;;;;;;4.97;100.00;102077.00;5034815;28;20391;-84
2022/11/27 07:09:21;;;;;;;11.35;4.95;;;;;;;4.99;100.00;102070.81;5033420;28;20031;-84
2022/11/27 07:11:46;;;;;;;11.38;5.07;;;;;;;5.00;100.00;102066.47;5036419;28;20037;-84
2022/11/27 07:14:12;;;;;;;8.07;4.50;;;;;;;4.98;100.00;102061.31;5046329;28;20048;-84
2022/11/27 07:16:38;;;;;;;11.85;4.50;;;;;;;4.98;100.00;102053.47;5033340;28;20029;-84
2022/11/27 07:19:06;;;;;;;9.95;4.88;;;;;;;4.99;100.00;102049.97;5043463;28;20453;-84
2022/11/27 07:21:31;;;;;;;11.90;5.15;;;;;;;4.99;100.00;102046.50;5049150;28;20037;-80
2022/11/27 07:23:57;;;;;;;13.90;5.25;;;;;;;4.97;100.00;102043.94;5044041;28;20052;-81
2022/11/27 07:26:27;;;;;;;10.98;4.80;;;;;;;4.97;100.00;102037.88;5050186;28;20056;-85
2022/11/27 07:28:54;;;;;;;11.40;4.88;;;;;;;4.97;100.00;102043.09;5049608;28;20035;-84
2022/11/27 07:31:23;;;;;;;10.70;5.47;;;;;;;4.96;100.00;102039.63;5049441;28;20496;-84
2022/11/27 07:33:51;;;;;;;12.18;5.03;;;;;;;4.96;100.00;102037.03;5050381;28;20017;-84
2022/11/27 07:36:19;;;;;;;13.00;4.93;;;;;;;4.99;100.00;102029.09;5048892;28;20131;-84
2022/11/27 07:38:45;;;;;;;12.80;5.40;;;;;;;4.99;100.00;102033.47;5049976;28;20024;-84
2022/11/27 07:41:11;;;;;;;10.48;5.30;;;;;;;5.00;100.00;102029.94;5037507;28;20431;-84
2022/11/27 07:43:36;;;;;;;10.52;5.03;;;;;;;5.02;100.00;102031.59;5028883;28;20025;-85
2022/11/27 07:46:09;;;;;;;12.38;5.35;;;;;;;5.01;100.00;102024.69;5029873;28;20156;-84
2022/11/27 07:48:35;;;;;;;11.55;5.03;;;;;;;5.03;100.00;102022.03;5029780;28;20025;-84
2022/11/27 07:51:00;;;;;;;9.20;5.22;;;;;;;5.02;100.00;102020.31;5067870;28;20031;-84
2022/11/27 07:53:26;;;;;;;12.70;5.30;;;;;;;5.03;100.00;102007.22;5069159;28;20016;-84
2022/11/27 07:55:51;;;;;;;11.63;5.05;;;;;;;5.04;100.00;102001.13;5068301;28;20093;-84
2022/11/27 07:58:17;;;;;;;11.63;5.50;;;;;;;5.04;100.00;101995.91;5040372;28;20124;-84
2022/11/27 08:00:42;;;;;;;12.20;5.63;;;;;;;5.03;100.00;101988.97;5032435;28;20037;-84
2022/11/27 08:03:09;;;;;;;10.80;5.53;;;;;;;5.03;100.00;101994.19;5035015;28;20672;-84
2022/11/27 08:05:34;;;;;;;12.63;5.60;;;;;;;5.06;100.00;102000.22;5045851;28;20024;-84
2022/11/27 08:08:04;;;;;;;9.45;5.95;;;;;;;5.05;100.00;101996.75;5048699;28;20387;-85
2022/11/27 08:10:33;;;;;;;15.07;6.40;;;;;;;5.08;100.00;101987.97;5048378;28;20110;-82
2022/11/27 08:12:58;;;;;;;11.73;5.30;;;;;;;5.08;100.00;101985.34;5048983;28;20037;-82
2022/11/27 08:15:24;;;;;;;12.15;6.10;;;;;;;5.06;100.00;101988.03;5033892;28;20032;-82
2022/11/27 08:17:50;;;;;;;12.45;5.97;;;;;;;5.09;100.00;101990.53;5029557;28;20032;-84
2022/11/27 08:20:18;;;;;;;14.15;6.38;;;;;;;5.10;100.00;101994.84;5030090;28;20143;-85
2022/11/27 08:22:44;;;;;;;10.93;6.10;;;;;;;5.10;100.00;101993.97;5059620;28;20505;-83
2022/11/27 08:25:10;;;;;;;11.82;6.40;;;;;;;5.14;100.00;101993.84;5048518;28;20049;-85
2022/11/27 08:27:36;;;;;;;12.82;6.40;;;;;;;5.16;100.00;101980.75;5049812;28;20032;-84
2022/11/27 08:30:03;;;;;;;11.75;6.18;;;;;;;5.15;100.00;101986.84;5049864;28;20033;-83
2022/11/27 08:32:28;;;;;;;14.00;6.95;;;;;;;5.19;100.00;101985.84;5034616;28;20171;-84
2022/11/27 08:34:53;;;;;;;12.10;6.35;;;;;;;5.19;100.00;101991.06;5030198;28;20093;-84
2022/11/27 08:37:20;;;;;;;16.30;6.72;;;;;;;5.22;100.00;101991.00;5029983;28;20116;-84
2022/11/27 08:39:45;;;;;;;11.05;6.50;;;;;;;5.23;100.00;101988.34;5029772;28;20029;-84
2022/11/27 08:42:11;;;;;;;11.45;6.85;;;;;;;5.27;100.00;101987.31;5029156;28;20032;-84
2022/11/27 08:44:36;;;;;;;11.23;6.85;;;;;;;5.28;100.00;101981.19;5029762;28;20022;-84
2022/11/27 08:47:01;;;;;;;11.15;6.15;;;;;;;5.32;100.00;101976.72;5055107;28;20393;-84
2022/11/27 08:49:27;;;;;;;12.80;7.43;;;;;;;5.32;100.00;101982.81;5028342;28;20033;-84
2022/11/27 08:51:52;;;;;;;15.10;7.60;;;;;;;5.34;100.00;101980.13;5068080;28;20057;-83
2022/11/27 08:54:17;;;;;;;11.73;7.13;;;;;;;5.37;100.00;101990.47;5066722;28;20063;-84
2022/11/27 08:56:43;;;;;;;12.98;7.38;;;;;;;5.39;100.00;101993.88;5069003;28;20020;-84
2022/11/27 08:59:08;;;;;;;14.63;7.72;;;;;;;5.40;100.00;101990.38;5055672;28;20033;-83
2022/11/27 09:01:34;;;;;;;11.10;7.50;;;;;;;5.43;100.00;101995.47;5046643;28;20024;-83
2022/11/27 09:03:59;;;;;;;12.65;7.03;;;;;;;5.45;100.00;101993.66;5040711;28;20021;-84
2022/11/27 09:06:28;;;;;;;15.65;8.05;;;;;;;5.45;100.00;101992.81;5048266;28;20025;-83
2022/11/27 09:09:00;;;;;;;14.93;7.63;;;;;;;5.49;100.00;101992.66;5046840;28;20112;-83
2022/11/27 09:11:27;;;;;;;;;;;;;;;5.58;100.00;101992.31;5046974;28;20052;-83
2022/11/27 09:13:52;;;;;;;;;;;;;;;5.61;100.00;101992.25;5051221;28;20011;-83
2022/11/27 09:16:21;;;;;;;;;;;;;;;5.65;100.00;101993.00;5049039;28;20008;-83
2022/11/27 09:18:47;;;;;;;;;;;;;;;5.69;100.00;101988.50;5033508;28;19909;-83
2022/11/27 09:21:13;;;;;;;;;;;;;;;5.69;100.00;101988.50;5036742;28;19916;-83
2022/11/27 09:23:39;;;;;;;;;;;;;;;5.72;100.00;101980.56;5052167;28;19917;-83
2022/11/27 09:26:06;;;;;;;;;;;;;;;5.75;100.00;101980.47;5050672;28;19912;-83
2022/11/27 09:28:32;;;;;;;;;;;;;;;5.79;100.00;101982.03;5050203;28;20359;-81
2022/11/27 09:30:58;;;;;;;;;;;;;;;5.80;100.00;101976.78;5050835;28;19991;-83
2022/11/27 09:33:24;;;;;;;;;;;;;;;5.84;100.00;101987.94;5050144;28;20333;-83
2022/11/27 09:35:49;;;;;;;;;;;;;;;5.85;100.00;101979.22;5051876;28;19944;-84
2022/11/27 09:38:15;;;;;;;;;;;;;;;5.88;100.00;101981.72;5045553;28;20352;-84
2022/11/27 09:40:47;;;;;;;;;;;;;;;5.91;100.00;101979.03;5051923;28;20011;-84
2022/11/27 09:43:12;;;;;;;;;;;;;;;5.95;100.00;101978.00;5049191;28;19963;-84
2022/11/27 09:45:41;;;;;;;;;;;;;;;5.98;100.00;101970.03;5052360;28;19944;-82
2022/11/27 09:48:10;;;;;;;;;;;;;;;6.01;100.00;101969.97;5052057;28;20285;-82
2022/11/27 09:50:38;;;;;;;;;;;;;;;6.02;100.00;101966.44;5058624;28;20380;-84
2022/11/27 09:53:05;;;;;;;;;;;;;;;6.06;100.00;101960.19;5070528;28;19915;-84
2022/11/27 09:55:31;;;;;;;;;;;;;;;6.07;100.00;101961.91;5051619;28;20341;-84
2022/11/27 09:58:16;;;;;;;;;;;;;;;6.11;100.00;101952.19;5052620;28;20052;-84
2022/11/27 10:00:42;;;;;;;;;;;;;;;6.14;100.00;101952.91;5051682;28;20275;-84
2022/11/27 10:03:23;;;;;;;;;;;;;;;6.17;100.00;101952.78;5068049;28;20006;-84
2022/11/27 10:06:07;;;;;;;;;;;;;;;6.20;100.00;101942.22;5072034;28;19924;-84
2022/11/27 10:08:47;;;;;;;;;;;;;;;6.23;100.00;101947.31;5071519;28;19915;-84
2022/11/27 10:11:17;;;;;;;;;;;;;;;6.27;100.00;101937.59;5070080;28;19914;-84
2022/11/27 10:13:54;;;;;;;;;;;;;;;6.27;100.00;101943.69;5047028;28;19913;-84
2022/11/27 10:16:30;;;;;;;;;;;;;;;6.31;100.00;101938.34;5031061;28;19952;-84
2022/11/27 10:19:03;;;;;;;;;;;;;;;6.35;100.00;101929.47;5032252;28;19913;-84
2022/11/27 10:21:47;;;;;;;;;;;;;;;6.36;100.00;101920.72;5032573;28;19917;-84
2022/11/27 10:24:35;;;;;;;;;;;;;;;6.38;100.00;101911.03;5031261;28;20288;-84
2022/11/27 10:27:01;;;;;;;;;;;;;;;6.42;100.00;101904.81;5047896;28;19913;-84
2022/11/27 10:29:33;;;;;;;;;;;;;;;6.44;100.00;101909.06;5045053;28;19995;-84
2022/11/27 10:32:02;;;;;;;;;;;;;;;6.48;100.00;101910.66;5050638;28;20449;-84
2022/11/27 10:34:54;;;;;;;;;;;;;;;6.51;100.00;101905.28;5052312;28;20458;-84
2022/11/27 10:37:27;;;;;;;;;;;;;;;6.56;100.00;101903.34;5050596;28;19908;-84
2022/11/27 10:39:55;;;;;;;;;;;;;;;6.58;100.00;101892.81;5067943;28;20261;-84
2022/11/27 10:42:20;;;;;;;;;;;;;;;6.60;100.00;101889.22;5069740;28;19908;-84
2022/11/27 10:45:05;;;;;;;;;;;;;;;6.61;100.00;101890.06;5070338;28;19918;-84
2022/11/27 10:47:30;;;;;;;;;;;;;;;6.62;100.00;101886.53;5046403;28;20470;-84
2022/11/27 10:49:56;;;;;;;;;;;;;;;6.62;100.00;101891.78;5050619;28;19912;-84
2022/11/27 10:52:21;;;;;;;;;;;;;;;6.62;100.00;101881.31;5050497;28;19936;-84
2022/11/27 10:54:54;;;;;;;;;;;;;;;6.62;100.00;101886.53;5050897;28;19932;-84
2022/11/27 10:57:34;;;;;;;;;;;;;;;6.63;100.00;101877.78;5049403;28;19934;-83
2022/11/27 11:00:24;;;;;;;;;;;;;;;6.63;100.00;101869.94;5050375;28;19912;-83
2022/11/27 11:03:04;;;;;;;;;;;;;;;6.64;100.00;101869.03;5049964;28;19909;-84
2022/11/27 11:05:30;;;;;;;;;;;;;;;6.68;100.00;101865.38;5043984;28;19924;-84
2022/11/27 11:08:13;;;;;;;;;;;;;;;6.68;100.00;101854.06;5050375;28;19909;-84
2022/11/27 11:10:58;;;;;;;;;;;;;;;6.69;100.00;101861.84;5063954;28;20431;-84
2022/11/27 11:13:26;;;;;;;;;;;;;;;6.70;100.00;101845.22;5070269;28;19915;-84
2022/11/27 11:15:51;;;;;;;;;;;;;;;6.71;100.00;101838.25;5070298;28;19915;-84
2022/11/27 11:18:21;;;;;;;;;;;;;;;6.71;100.00;101841.69;5070644;28;19912;-84
2022/11/27 11:20:48;;;;;;;;;;;;;;;6.74;100.00;101838.09;5066228;28;19920;-84
2022/11/27 11:23:22;;;;;;;;;;;;;;;6.74;100.00;101841.56;5046558;28;19932;-84
2022/11/27 11:25:48;;;;;;;;;;;;;;;6.75;100.00;101824.13;5050855;28;20004;-84
2022/11/27 11:28:16;;;;;;;;;;;;;;;6.76;100.00;101823.19;5049872;28;19939;-84
2022/11/27 11:30:41;;;;;;;;;;;;;;;6.77;100.00;101814.44;5043238;28;20365;-84
2022/11/27 11:33:10;;;;;;;;;;;;;;;6.78;100.00;101814.38;5030306;28;20380;-84
2022/11/27 11:35:36;;;;;;;;;;;;;;;6.78;100.00;101803.91;5028291;28;20523;-84
2022/11/27 11:38:06;;;;;;;;;;;;;;;6.80;100.00;101801.22;5024928;28;19970;-84
2022/11/27 11:40:33;;;;;;;;;;;;;;;6.80;100.00;101801.22;5045569;28;20408;-84
2022/11/27 11:43:06;;;;;;;;;;;;;;;6.81;100.00;101797.72;5030046;28;19975;-83
2022/11/27 11:45:32;;;;;;;;;;;;;;;6.81;100.00;101797.72;5030418;28;19920;-84